createdAt,value
2018-12-24T00:00:08.179Z,0.40
2018-12-24T00:02:36.822Z,0.53
2018-12-24T00:05:05.484Z,1.03
2018-12-24T00:07:34.234Z,1.00
2018-12-24T00:10:02.734Z,1.37
2018-12-24T00:12:31.521Z,0.43
2018-12-24T00:15:00.546Z,0.40
2018-12-24T00:17:29.284Z,2.10
2018-12-24T00:19:57.838Z,0.60
2018-12-24T00:22:26.354Z,0.80
2018-12-24T00:24:54.854Z,3.43
2018-12-24T00:27:23.681Z,0.50
2018-12-24T00:29:52.329Z,0.50
2018-12-24T00:32:20.903Z,0.97
2018-12-24T00:34:49.678Z,0.50
2018-12-24T00:37:18.186Z,0.30
2018-12-24T00:39:46.942Z,0.40
2018-12-24T00:42:16.161Z,0.50
2018-12-24T00:44:44.752Z,0.90
2018-12-24T00:47:13.265Z,0.70
2018-12-24T00:49:42.056Z,1.00
2018-12-24T00:52:10.550Z,0.40
2018-12-24T00:54:39.326Z,0.30
2018-12-24T00:57:07.858Z,0.60
2018-12-24T00:59:36.624Z,0.40
2018-12-24T01:02:05.156Z,0.50
2018-12-24T01:04:33.705Z,0.40
2018-12-24T01:07:02.606Z,0.40
2018-12-24T01:09:31.362Z,0.40
2018-12-24T01:12:00.149Z,0.57
2018-12-24T01:14:28.656Z,0.40
2018-12-24T01:16:57.192Z,1.37
2018-12-24T01:19:25.986Z,0.40
2018-12-24T01:21:55.735Z,0.40
2018-12-24T01:24:24.498Z,0.40
2018-12-24T01:26:53.102Z,0.50
2018-12-24T01:29:21.588Z,0.30
2018-12-24T01:31:50.422Z,0.40
2018-12-24T01:34:19.216Z,0.40
2018-12-24T01:36:47.740Z,1.03
2018-12-24T01:39:16.805Z,0.60
2018-12-24T01:41:45.341Z,0.60
2018-12-24T01:44:14.086Z,0.40
2018-12-24T01:46:42.582Z,0.40
2018-12-24T01:49:11.545Z,0.40
2018-12-24T01:51:40.070Z,0.47
2018-12-24T01:54:08.777Z,0.30
2018-12-24T01:56:37.326Z,0.50
2018-12-24T01:59:06.085Z,0.60
2018-12-24T02:01:34.846Z,0.40
2018-12-24T02:04:03.446Z,0.40
2018-12-24T02:06:32.179Z,0.40
2018-12-24T02:09:00.920Z,0.40
2018-12-24T02:11:29.455Z,0.30
2018-12-24T02:13:57.958Z,0.33
2018-12-24T02:16:26.686Z,0.70
2018-12-24T02:18:55.440Z,0.40
2018-12-24T02:21:23.940Z,0.40
2018-12-24T02:23:52.456Z,0.30
2018-12-24T02:26:21.198Z,0.40
2018-12-24T02:28:49.703Z,0.60
2018-12-24T02:31:18.442Z,1.63
2018-12-24T02:33:47.217Z,1.77
2018-12-24T02:36:15.724Z,0.40
2018-12-24T02:38:44.474Z,1.43
2018-12-24T02:41:13.032Z,0.30
2018-12-24T02:43:41.513Z,0.40
2018-12-24T02:46:10.012Z,0.40
2018-12-24T02:48:38.541Z,0.60
2018-12-24T02:51:07.270Z,0.40
2018-12-24T02:53:35.765Z,0.30
2018-12-24T02:56:04.534Z,0.80
2018-12-24T02:58:33.025Z,1.07
2018-12-24T03:01:01.510Z,1.57
2018-12-24T03:03:30.263Z,0.50
2018-12-24T03:05:58.980Z,0.40
2018-12-24T03:08:27.639Z,0.50
2018-12-24T03:10:57.228Z,0.30
2018-12-24T03:13:25.723Z,0.40
2018-12-24T03:15:54.489Z,0.40
2018-12-24T03:18:22.995Z,0.30
2018-12-24T03:20:51.494Z,0.40
2018-12-24T03:23:20.001Z,0.30
2018-12-24T03:25:48.779Z,0.70
2018-12-24T03:28:17.258Z,0.43
2018-12-24T03:30:45.751Z,0.40
2018-12-24T03:33:14.305Z,0.40
2018-12-24T03:35:42.847Z,1.17
2018-12-24T03:38:11.391Z,0.40
2018-12-24T03:40:39.939Z,0.40
2018-12-24T03:43:12.796Z,0.40
2018-12-24T03:45:38.940Z,0.70
2018-12-24T03:48:08.618Z,1.70
2018-12-24T03:50:37.375Z,0.80
2018-12-24T03:53:05.885Z,1.23
2018-12-24T03:55:34.650Z,1.13
2018-12-24T03:58:03.145Z,0.50
2018-12-24T04:00:31.643Z,0.53
2018-12-24T04:03:00.222Z,0.40
2018-12-24T04:05:29.022Z,1.07
2018-12-24T04:07:57.500Z,0.50
2018-12-24T04:10:26.021Z,0.30
2018-12-24T04:12:54.523Z,0.40
2018-12-24T04:15:23.021Z,0.50
2018-12-24T04:17:51.552Z,0.47
2018-12-24T04:20:20.054Z,0.40
2018-12-24T04:22:48.797Z,0.57
2018-12-24T04:25:17.325Z,1.03
2018-12-24T04:27:45.818Z,0.60
2018-12-24T04:30:14.318Z,0.60
2018-12-24T04:32:43.089Z,0.60
2018-12-24T04:35:11.583Z,3.23
2018-12-24T04:37:40.094Z,0.60
2018-12-24T04:40:08.648Z,0.50
2018-12-24T04:42:37.412Z,0.73
2018-12-24T04:45:05.975Z,0.70
2018-12-24T04:47:34.770Z,0.73
2018-12-24T04:50:03.516Z,0.70
2018-12-24T04:52:32.108Z,0.80
2018-12-24T04:55:00.696Z,0.80
2018-12-24T04:57:29.184Z,0.77
2018-12-24T04:59:57.911Z,0.80
2018-12-24T05:02:26.714Z,1.10
2018-12-24T05:04:55.446Z,1.00
2018-12-24T05:07:24.177Z,1.23
2018-12-24T05:09:53.011Z,1.13
2018-12-24T05:12:21.509Z,1.57
2018-12-24T05:14:50.239Z,1.30
2018-12-24T05:17:19.039Z,1.10
2018-12-24T05:19:47.766Z,8.33
2018-12-24T05:22:16.502Z,1.30
2018-12-24T05:24:45.277Z,1.80
2018-12-24T05:27:14.138Z,1.97
2018-12-24T05:29:42.886Z,1.63
2018-12-24T05:32:11.422Z,1.60
2018-12-24T05:34:39.903Z,1.47
2018-12-24T05:37:08.412Z,1.93
2018-12-24T05:39:37.177Z,1.63
2018-12-24T05:42:05.675Z,1.30
2018-12-24T05:44:34.179Z,1.50
2018-12-24T05:47:02.874Z,1.60
2018-12-24T05:49:31.363Z,2.03
2018-12-24T05:52:00.089Z,1.80
2018-12-24T05:54:28.615Z,1.47
2018-12-24T05:56:57.114Z,1.90
2018-12-24T05:59:25.858Z,1.93
2018-12-24T06:01:54.369Z,1.83
2018-12-24T06:04:22.854Z,1.87
2018-12-24T06:06:51.603Z,2.80
2018-12-24T06:09:20.413Z,3.33
2018-12-24T06:11:49.182Z,2.20
2018-12-24T06:14:17.917Z,3.37
2018-12-24T06:16:46.699Z,2.67
2018-12-24T06:19:15.448Z,2.60
2018-12-24T06:21:44.162Z,2.70
2018-12-24T06:24:12.680Z,2.60
2018-12-24T06:26:41.425Z,2.60
2018-12-24T06:29:09.913Z,2.57
2018-12-24T06:31:38.662Z,2.10
2018-12-24T06:34:07.178Z,3.03
2018-12-24T06:36:35.670Z,2.37
2018-12-24T06:39:06.655Z,2.47
2018-12-24T06:41:35.145Z,3.37
2018-12-24T06:44:06.782Z,2.60
2018-12-24T06:46:33.962Z,2.40
2018-12-24T06:49:02.469Z,2.50
2018-12-24T06:51:33.098Z,3.53
2018-12-24T06:54:01.799Z,3.10
2018-12-24T06:56:30.305Z,2.80
2018-12-24T06:58:59.148Z,2.30
2018-12-24T07:01:27.933Z,3.10
2018-12-24T07:03:56.418Z,2.87
2018-12-24T07:06:25.173Z,4.60
2018-12-24T07:08:53.691Z,2.70
2018-12-24T07:11:22.182Z,4.10
2018-12-24T07:13:50.906Z,3.40
2018-12-24T07:16:19.413Z,4.93
2018-12-24T07:18:48.164Z,4.20
2018-12-24T07:21:16.658Z,4.17
2018-12-24T07:23:45.428Z,4.00
2018-12-24T07:26:13.925Z,2.80
2018-12-24T07:28:42.417Z,3.30
2018-12-24T07:31:10.958Z,9.10
2018-12-24T07:33:39.466Z,3.10
2018-12-24T07:36:07.940Z,3.40
2018-12-24T07:38:36.705Z,3.30
2018-12-24T07:41:05.187Z,2.67
2018-12-24T07:43:33.678Z,3.00
2018-12-24T07:46:02.475Z,2.30
2018-12-24T07:48:31.194Z,3.00
2018-12-24T07:50:59.677Z,4.37
2018-12-24T07:53:28.199Z,3.50
2018-12-24T07:55:56.692Z,4.40
2018-12-24T07:58:25.428Z,2.90
2018-12-24T08:00:54.332Z,3.40
2018-12-24T08:03:22.989Z,3.77
2018-12-24T08:05:51.731Z,5.40
2018-12-24T08:08:20.257Z,4.67
2018-12-24T08:10:48.995Z,3.10
2018-12-24T08:13:17.482Z,3.43
2018-12-24T08:15:46.240Z,4.00
2018-12-24T08:18:14.975Z,5.40
2018-12-24T08:20:43.701Z,3.40
2018-12-24T08:23:12.466Z,3.70
2018-12-24T08:25:41.223Z,3.30
2018-12-24T08:28:09.761Z,4.40
2018-12-24T08:30:38.306Z,5.10
2018-12-24T08:33:07.174Z,16.33
2018-12-24T08:35:36.882Z,31.00
2018-12-24T08:38:05.757Z,31.37
2018-12-24T08:40:34.648Z,9.00
2018-12-24T08:43:03.167Z,3.80
2018-12-24T08:45:31.699Z,13.70
2018-12-24T08:48:00.433Z,9.60
2018-12-24T08:50:29.159Z,13.10
2018-12-24T08:52:57.950Z,23.87
2018-12-24T08:55:26.429Z,7.97
2018-12-24T08:57:54.922Z,9.50
2018-12-24T09:00:23.683Z,12.77
2018-12-24T09:02:52.178Z,10.83
2018-12-24T09:05:20.678Z,10.80
2018-12-24T09:07:49.214Z,29.10
2018-12-24T09:10:18.473Z,8.77
2018-12-24T09:12:47.206Z,8.33
2018-12-24T09:15:15.919Z,4.30
2018-12-24T09:17:44.755Z,4.57
2018-12-24T09:20:13.489Z,4.03
2018-12-24T09:22:42.003Z,4.00
2018-12-24T09:25:10.613Z,4.80
2018-12-24T09:27:39.146Z,4.23
2018-12-24T09:30:10.292Z,3.67
2018-12-24T09:32:39.149Z,5.87
2018-12-24T09:35:07.645Z,4.30
2018-12-24T09:37:36.173Z,4.20
2018-12-24T09:40:07.749Z,5.80
2018-12-24T09:42:36.491Z,5.40
2018-12-24T09:45:05.651Z,5.53
2018-12-24T09:47:34.138Z,4.17
2018-12-24T09:50:02.641Z,3.77
2018-12-24T09:52:31.146Z,3.67
2018-12-24T09:54:59.634Z,4.07
2018-12-24T09:57:28.465Z,3.47
2018-12-24T09:59:56.991Z,2.83
2018-12-24T10:02:28.807Z,4.37
2018-12-24T10:04:57.289Z,3.60
2018-12-24T10:07:27.824Z,6.77
2018-12-24T10:09:56.313Z,7.73
2018-12-24T10:12:25.263Z,8.07
2018-12-24T10:14:55.040Z,4.30
2018-12-24T10:17:23.517Z,3.90
2018-12-24T10:19:52.218Z,4.20
2018-12-24T10:22:21.039Z,5.63
2018-12-24T10:24:49.529Z,5.90
2018-12-24T10:27:18.261Z,4.63
2018-12-24T10:29:47.031Z,7.67
2018-12-24T10:32:15.762Z,6.03
2018-12-24T10:34:44.253Z,4.73
2018-12-24T10:37:12.780Z,3.77
2018-12-24T10:39:41.307Z,3.30
2018-12-24T10:42:09.843Z,4.80
2018-12-24T10:44:38.395Z,5.50
2018-12-24T10:47:06.878Z,5.73
2018-12-24T10:49:35.464Z,4.20
2018-12-24T10:52:04.230Z,3.20
2018-12-24T10:54:33.057Z,5.03
2018-12-24T10:57:01.941Z,7.50
2018-12-24T10:59:30.458Z,3.30
2018-12-24T11:01:58.954Z,3.07
2018-12-24T11:04:27.452Z,2.80
2018-12-24T11:06:56.002Z,3.17
2018-12-24T11:09:24.475Z,2.60
2018-12-24T11:11:52.961Z,2.00
2018-12-24T11:14:21.514Z,1.97
2018-12-24T11:16:50.249Z,3.10
2018-12-24T11:19:18.975Z,2.00
2018-12-24T11:21:47.780Z,2.73
2018-12-24T11:24:16.507Z,5.27
2018-12-24T11:26:45.220Z,2.30
2018-12-24T11:29:13.986Z,1.63
2018-12-24T11:31:42.483Z,1.90
2018-12-24T11:34:10.998Z,2.53
2018-12-24T11:36:39.526Z,3.60
2018-12-24T11:39:08.288Z,2.70
2018-12-24T11:41:37.467Z,2.30
2018-12-24T11:44:06.206Z,3.73
2018-12-24T11:46:34.696Z,2.60
2018-12-24T11:49:03.193Z,2.00
2018-12-24T11:51:31.882Z,2.23
2018-12-24T11:54:00.613Z,2.63
2018-12-24T11:56:29.098Z,2.87
2018-12-24T11:58:57.635Z,2.60
2018-12-24T12:01:26.364Z,4.33
2018-12-24T12:03:54.855Z,2.23
2018-12-24T12:06:23.613Z,2.83
2018-12-24T12:08:52.351Z,3.43
2018-12-24T12:11:20.836Z,2.67
2018-12-24T12:13:49.629Z,3.30
2018-12-24T12:16:18.366Z,4.13
2018-12-24T12:18:47.382Z,2.80
2018-12-24T12:21:16.159Z,2.90
2018-12-24T12:23:45.334Z,2.53
2018-12-24T12:26:14.079Z,2.50
2018-12-24T12:28:42.831Z,2.50
2018-12-24T12:31:11.335Z,3.83
2018-12-24T12:33:39.823Z,2.87
2018-12-24T12:36:08.372Z,2.90
2018-12-24T12:38:36.886Z,3.80
2018-12-24T12:41:05.655Z,3.00
2018-12-24T12:43:34.260Z,2.93
2018-12-24T12:46:02.999Z,3.07
2018-12-24T12:48:31.508Z,3.00
2018-12-24T12:51:00.263Z,2.13
2018-12-24T12:53:29.009Z,5.27
2018-12-24T12:55:57.766Z,5.37
2018-12-24T12:58:26.426Z,3.83
2018-12-24T13:00:56.885Z,3.50
2018-12-24T13:03:25.401Z,4.40
2018-12-24T13:05:54.633Z,3.93
2018-12-24T13:08:23.290Z,2.70
2018-12-24T13:10:52.045Z,3.10
2018-12-24T13:13:20.594Z,3.10
2018-12-24T13:15:49.060Z,3.23
2018-12-24T13:18:17.584Z,5.13
2018-12-24T13:20:46.112Z,3.77
2018-12-24T13:23:14.871Z,3.80
2018-12-24T13:25:43.633Z,3.70
2018-12-24T13:28:12.435Z,5.20
2018-12-24T13:30:40.927Z,4.20
2018-12-24T13:33:09.522Z,3.27
2018-12-24T13:35:38.256Z,2.83
2018-12-24T13:38:06.835Z,3.40
2018-12-24T13:40:35.350Z,3.10
2018-12-24T13:43:04.477Z,2.33
2018-12-24T13:45:33.223Z,3.07
2018-12-24T13:48:01.719Z,3.70
2018-12-24T14:03:07.829Z,2.20
2018-12-24T14:11:51.389Z,2.30
2018-12-24T14:26:48.678Z,2.90
2018-12-24T15:25:53.005Z,2.17
2018-12-24T15:40:49.994Z,1.77
2018-12-24T16:05:12.548Z,2.60
2018-12-24T16:20:42.400Z,1.87
2018-12-24T16:39:17.230Z,1.43
2018-12-24T16:48:05.339Z,2.20
2018-12-24T16:57:07.676Z,6.90
2018-12-24T17:00:07.138Z,3.80
2018-12-24T17:05:56.000Z,4.00
2018-12-24T17:11:53.213Z,2.10
2018-12-24T17:14:33.744Z,2.50
2018-12-24T17:36:02.551Z,3.10
2018-12-24T17:39:02.532Z,2.73
2018-12-24T17:47:51.787Z,3.23
2018-12-24T17:53:33.688Z,2.40
2018-12-24T17:59:33.535Z,2.60
2018-12-24T18:02:14.284Z,5.03
2018-12-24T18:11:04.077Z,3.60
2018-12-24T18:22:56.901Z,5.90
2018-12-24T18:25:44.626Z,6.07
2018-12-24T18:31:06.910Z,6.80
2018-12-24T18:34:30.460Z,6.40
2018-12-24T18:37:18.187Z,8.00
2018-12-24T18:40:06.009Z,6.13
2018-12-24T18:42:53.743Z,5.77
2018-12-24T18:49:46.138Z,7.30
2018-12-24T18:56:00.062Z,5.40
2018-12-24T18:59:25.210Z,6.40
2018-12-24T19:05:58.534Z,4.57
2018-12-24T19:08:46.266Z,4.63
2018-12-24T19:11:34.037Z,5.53
2018-12-24T19:18:03.151Z,5.60
2018-12-24T19:21:26.886Z,3.80
2018-12-24T19:24:07.814Z,6.23
2018-12-24T19:26:48.846Z,4.43
2018-12-24T19:32:53.514Z,4.57
2018-12-24T19:39:13.198Z,4.50
2018-12-24T20:00:40.061Z,6.03
2018-12-24T20:21:23.945Z,7.87
2018-12-24T20:30:25.552Z,8.13
2018-12-24T20:36:26.324Z,7.60
2018-12-24T20:48:16.475Z,8.33
2018-12-24T20:54:33.520Z,10.27
2018-12-24T21:15:44.582Z,11.40
2018-12-24T21:22:33.360Z,9.27
2018-12-24T21:56:28.800Z,8.27
2018-12-24T21:58:57.206Z,8.40
2018-12-24T22:01:26.014Z,6.43
2018-12-24T22:03:54.614Z,6.27
2018-12-24T22:06:23.316Z,6.50
2018-12-24T22:08:51.762Z,5.97
2018-12-24T22:11:20.526Z,7.83
2018-12-24T22:13:48.929Z,8.33
2018-12-24T22:16:17.422Z,5.50
2018-12-24T22:18:46.286Z,6.87
2018-12-24T22:21:14.950Z,6.87
2018-12-24T22:23:43.345Z,8.23
2018-12-24T22:26:12.060Z,6.73
2018-12-24T22:28:40.507Z,9.40
2018-12-24T22:31:08.912Z,7.47
2018-12-24T22:33:37.329Z,5.63
2018-12-24T22:36:05.731Z,6.87
2018-12-24T22:38:34.751Z,4.23
2018-12-24T22:41:03.713Z,6.40
2018-12-24T22:43:32.380Z,8.43
2018-12-24T22:46:00.760Z,8.90
2018-12-24T22:48:31.177Z,7.80
2018-12-24T22:50:59.729Z,9.17
2018-12-24T22:53:28.350Z,8.93
2018-12-24T22:55:56.809Z,10.53
2018-12-24T22:58:25.267Z,9.30
2018-12-24T23:00:54.075Z,9.53
2018-12-24T23:03:22.952Z,6.87
2018-12-24T23:05:51.349Z,6.33
2018-12-24T23:08:19.742Z,5.60
2018-12-24T23:10:48.177Z,6.50
2018-12-24T23:13:16.826Z,4.53
2018-12-24T23:15:45.457Z,7.10
2018-12-24T23:18:13.892Z,8.40
2018-12-24T23:20:42.416Z,5.47
2018-12-24T23:23:10.797Z,5.13
2018-12-24T23:25:39.755Z,6.73
2018-12-24T23:28:08.406Z,7.60
2018-12-24T23:30:37.878Z,5.83
2018-12-24T23:33:06.318Z,5.23
2018-12-24T23:35:34.963Z,5.83
2018-12-24T23:38:03.606Z,4.57
2018-12-24T23:40:32.259Z,4.33
2018-12-24T23:43:00.665Z,6.03
2018-12-24T23:45:29.061Z,4.23
2018-12-24T23:47:58.046Z,7.20
2018-12-24T23:50:26.458Z,7.07
2018-12-24T23:52:55.101Z,6.53
2018-12-24T23:55:23.536Z,6.07
2018-12-24T23:57:52.173Z,8.20
